NCAR-RAP Real-Time Weather Data

Output produced by METARs form (12 August 2020  18:12 UTC)
found at http://weather.rap.ucar.edu/surface/
 
KGEG 121753Z 22012KT 10SM BKN140 BKN200 17/02 A2993 RMK AO2 SLP123 T01720017 10172 20144 53019
KGEG 121653Z 20013KT 10SM BKN110 BKN200 16/03 A2991 RMK AO2 SLP114 T01610028
KGEG 121553Z 19011KT 10SM BKN110 BKN200 15/03 A2989 RMK AO2 SLP110 T01500033
KGEG 121453Z 21010KT 10SM BKN130 OVC200 14/03 A2987 RMK AO2 SLP101 T01440033 51023
KGEG 121353Z 21009KT 10SM FEW100 BKN150 OVC210 14/03 A2985 RMK AO2 SLP095 T01440033
KGEG 121253Z 21013KT 10SM FEW100 BKN160 OVC210 15/03 A2982 RMK AO2 SLP083 T01500028
KGEG 121153Z 21016KT 10SM OVC170 16/03 A2980 RMK AO2 SLP073 T01560028 10217 20156 51009
KGEG 121053Z 21014KT 10SM OVC170 16/03 A2979 RMK AO2 SLP071 T01610033
KGEG 120953Z 21013KT 10SM OVC190 18/04 A2978 RMK AO2 SLP067 T01780039
KGEG 120853Z 22012KT 10SM OVC200 18/03 A2977 RMK AO2 SLP061 T01830028 53011
KGEG 120753Z 23013KT 10SM FEW150 OVC200 19/03 A2975 RMK AO2 SLP056 T01940033 402940139
KGEG 120653Z 23009KT 10SM FEW150 BKN200 20/03 A2974 RMK AO2 SLP051 T02000028
KGEG 120553Z 23009KT 10SM FEW150 SCT200 22/02 A2973 RMK AO2 SLP049 T02170017 10289 20217 58002
KGEG 120453Z 20009KT 10SM SCT200 23/02 A2974 RMK AO2 SLP051 T02330022
KGEG 120353Z 20007KT 10SM FEW110 SCT150 BKN220 24/02 A2974 RMK AO2 SLP054 T02390017
KGEG 120253Z 22010KT 10SM FEW110 FEW150 BKN220 26/01 A2974 RMK AO2 SLP054 T02560006 56008
KGEG 120153Z 24012KT 10SM FEW150 BKN220 27/M01 A2974 RMK AO2 SLP054 T02671006
KGEG 120053Z 22019G22KT 10SM FEW065 FEW140 FEW220 28/M02 A2975 RMK AO2 SLP058 T02831017
KGEG 112353Z 22015G21KT 10SM FEW070 FEW150 FEW220 29/01 A2976 RMK AO2 PK WND 22028/2306 SLP062 T02890011 10294 20244 56019